Time;durP1;ratioP1;P1;durP2;ratioP2;P2;SDS_P1;SDS_P2;PMS_P1;PMS_P2;Temp;Humidity;BMP_temperature;BMP_pressure;BME280_temperature;BME280_humidity;BME280_pressure;Samples;Min_cycle;Max_cycle;Signal;HPM_P1;HPM_P2
2022/11/07 00:00:59;;;;;;;;;4.33;3.33;;;;;;;;5034413;28;46255;-69
2022/11/07 00:03:24;;;;;;;;;10.67;7.00;;;;;;;;5053166;28;45424;-68
2022/11/07 00:05:49;;;;;;;;;6.67;4.67;;;;;;;;5052903;28;45697;-69
2022/11/07 00:08:14;;;;;;;;;3.67;3.33;;;;;;;;5050747;28;45954;-68
2022/11/07 00:10:40;;;;;;;;;5.33;1.67;;;;;;;;5048714;28;46395;-68
2022/11/07 00:13:05;;;;;;;;;6.67;4.00;;;;;;;;5034679;28;45769;-66
2022/11/07 00:15:30;;;;;;;;;3.00;3.00;;;;;;;;5041437;28;45658;-68
2022/11/07 00:17:56;;;;;;;;;4.00;2.00;;;;;;;;5054334;28;45692;-67
2022/11/07 00:20:21;;;;;;;;;5.33;2.00;;;;;;;;5043097;28;46072;-67
2022/11/07 00:22:47;;;;;;;;;12.00;8.33;;;;;;;;5049593;28;45345;-66
2022/11/07 00:25:16;;;;;;;;;5.00;4.00;;;;;;;;5059469;22;45759;-87
2022/11/07 00:27:42;;;;;;;;;6.00;3.00;;;;;;;;5030355;28;45363;-85
2022/11/07 00:30:07;;;;;;;;;1.33;1.33;;;;;;;;5032344;28;46666;-85
2022/11/07 00:32:33;;;;;;;;;9.00;4.67;;;;;;;;5042460;28;45703;-85
2022/11/07 00:34:59;;;;;;;;;9.00;5.00;;;;;;;;5029996;28;45757;-87
2022/11/07 00:37:25;;;;;;;;;6.67;4.00;;;;;;;;5051892;28;45335;-84
2022/11/07 00:39:50;;;;;;;;;3.00;2.00;;;;;;;;5058548;28;45121;-85
2022/11/07 00:42:16;;;;;;;;;4.33;3.67;;;;;;;;5050250;28;45064;-84
2022/11/07 00:44:44;;;;;;;;;6.00;3.33;;;;;;;;5066732;28;44747;-85
2022/11/07 00:47:10;;;;;;;;;5.67;3.00;;;;;;;;5042645;28;45759;-84
2022/11/07 00:49:35;;;;;;;;;9.00;7.67;;;;;;;;5050482;28;45324;-85
2022/11/07 00:52:00;;;;;;;;;5.33;2.67;;;;;;;;5052211;28;45715;-84
2022/11/07 00:54:26;;;;;;;;;8.33;4.00;;;;;;;;5034250;28;45387;-85
2022/11/07 00:56:51;;;;;;;;;10.33;6.67;;;;;;;;5052602;28;45406;-84
2022/11/07 00:59:19;;;;;;;;;1.67;1.67;;;;;;;;5036357;28;46690;-84
2022/11/07 01:01:44;;;;;;;;;5.00;2.67;;;;;;;;5054772;28;45569;-84
2022/11/07 01:06:55;;;;;;;;;5.33;2.00;;;;;;;;5041968;28;45627;-85
2022/11/07 01:09:23;;;;;;;;;2.00;2.00;;;;;;;;5047133;28;45387;-83
2022/11/07 01:11:51;;;;;;;;;3.33;1.33;;;;;;;;5029781;28;45472;-87
2022/11/07 01:14:17;;;;;;;;;6.67;2.33;;;;;;;;5049030;28;45367;-89
2022/11/07 01:16:44;;;;;;;;;8.00;3.33;;;;;;;;5028973;28;47198;-86
2022/11/07 01:19:10;;;;;;;;;5.00;2.67;;;;;;;;5061698;28;46231;-86
2022/11/07 01:21:38;;;;;;;;;7.33;3.33;;;;;;;;5046703;28;45290;-87
2022/11/07 01:24:04;;;;;;;;;1.67;0.33;;;;;;;;5059471;28;44793;-86
2022/11/07 01:26:53;;;;;;;;;;;;;;;;;;;;;
2022/11/07 01:29:21;;;;;;;;;2.00;1.67;;;;;;;;5054791;28;74377;-87
2022/11/07 01:31:47;;;;;;;;;6.00;3.67;;;;;;;;5033129;28;45473;-85
2022/11/07 01:34:19;;;;;;;;;5.33;2.00;;;;;;;;5032063;28;45374;-87
2022/11/07 01:36:56;;;;;;;;;2.00;1.67;;;;;;;;5030154;28;45459;-85
2022/11/07 01:39:28;;;;;;;;;5.67;1.33;;;;;;;;5027645;28;45531;-89
2022/11/07 01:42:01;;;;;;;;;3.67;1.67;;;;;;;;5035774;28;44706;-86
2022/11/07 01:44:27;;;;;;;;;6.67;4.33;;;;;;;;5046149;28;46359;-86
2022/11/07 01:46:56;;;;;;;;;5.33;2.00;;;;;;;;5041447;28;44869;-88
2022/11/07 01:49:28;;;;;;;;;5.33;3.67;;;;;;;;5053133;28;45389;-88
2022/11/07 01:51:59;;;;;;;;;4.33;3.33;;;;;;;;5036831;28;45297;-86
2022/11/07 01:54:27;;;;;;;;;3.67;2.00;;;;;;;;5043628;28;45078;-84
2022/11/07 01:56:57;;;;;;;;;4.00;4.00;;;;;;;;5058647;28;45428;-87
2022/11/07 01:59:26;;;;;;;;;5.00;1.00;;;;;;;;5057100;28;45624;-86
2022/11/07 02:01:54;;;;;;;;;4.00;2.67;;;;;;;;5036218;28;45487;-87
2022/11/07 02:04:21;;;;;;;;;2.00;2.00;;;;;;;;5035697;28;44746;-86
2022/11/07 02:06:50;;;;;;;;;8.33;7.33;;;;;;;;5047728;28;46144;-86
2022/11/07 02:09:15;;;;;;;;;4.67;3.33;;;;;;;;5056650;28;45408;-87
2022/11/07 02:11:42;;;;;;;;;4.00;2.00;;;;;;;;5056587;28;45111;-85
2022/11/07 02:14:17;;;;;;;;;3.00;1.67;;;;;;;;5050436;28;44996;-86
2022/11/07 02:16:45;;;;;;;;;1.67;1.67;;;;;;;;5053821;28;45391;-85
2022/11/07 02:19:29;;;;;;;;;7.00;4.00;;;;;;;;5053096;28;46264;-86
2022/11/07 02:22:05;;;;;;;;;4.00;2.67;;;;;;;;5045271;28;45795;-86
2022/11/07 02:24:35;;;;;;;;;1.33;0.67;;;;;;;;5026216;28;45617;-85
2022/11/07 02:27:08;;;;;;;;;0.33;0.33;;;;;;;;5052390;28;45632;-85
2022/11/07 02:29:34;;;;;;;;;4.33;3.67;;;;;;;;5032259;28;47152;-84
2022/11/07 02:32:03;;;;;;;;;3.00;1.67;;;;;;;;5058100;28;45236;-85
2022/11/07 02:34:29;;;;;;;;;4.00;1.67;;;;;;;;5051751;28;45117;-83
2022/11/07 02:36:55;;;;;;;;;7.67;2.00;;;;;;;;5055145;28;45160;-83
2022/11/07 02:39:20;;;;;;;;;5.67;1.67;;;;;;;;5061652;27;46232;-83
2022/11/07 02:41:46;;;;;;;;;7.33;2.00;;;;;;;;5051615;28;45496;-84
2022/11/07 02:44:27;;;;;;;;;;;;;;;;;;;;;
2022/11/07 02:46:53;;;;;;;;;1.00;1.00;;;;;;;;5048640;28;74095;-83
2022/11/07 02:49:24;;;;;;;;;3.67;1.33;;;;;;;;5040300;28;46227;-84
2022/11/07 02:51:49;;;;;;;;;3.00;1.67;;;;;;;;5036078;28;45451;-81
2022/11/07 02:54:15;;;;;;;;;6.00;2.67;;;;;;;;5035113;28;45257;-83
2022/11/07 02:56:40;;;;;;;;;8.00;1.67;;;;;;;;5043672;28;45291;-81
2022/11/07 02:59:05;;;;;;;;;2.33;2.00;;;;;;;;5051572;28;45587;-79
2022/11/07 03:01:31;;;;;;;;;2.00;0.67;;;;;;;;5030038;28;45344;-81
2022/11/07 03:03:56;;;;;;;;;3.00;1.00;;;;;;;;5047713;28;46044;-80
2022/11/07 03:06:36;;;;;;;;;;;;;;;;;;;;;
2022/11/07 03:09:01;;;;;;;;;3.00;2.00;;;;;;;;5039745;28;74934;-80
2022/11/07 03:11:27;;;;;;;;;3.33;2.33;;;;;;;;5035427;28;45447;-80
2022/11/07 03:13:56;;;;;;;;;6.67;3.67;;;;;;;;5036532;28;44808;-82
2022/11/07 03:16:21;;;;;;;;;2.33;2.33;;;;;;;;5044219;28;46113;-82
2022/11/07 03:18:47;;;;;;;;;3.33;2.00;;;;;;;;5058035;28;45354;-83
2022/11/07 03:21:15;;;;;;;;;3.67;1.00;;;;;;;;5054061;28;45786;-83
2022/11/07 03:23:40;;;;;;;;;5.00;2.33;;;;;;;;5031846;28;45638;-82
2022/11/07 03:26:05;;;;;;;;;2.67;1.67;;;;;;;;5028301;28;45780;-82
2022/11/07 03:28:31;;;;;;;;;11.00;3.33;;;;;;;;5037081;28;47115;-82
2022/11/07 03:31:00;;;;;;;;;11.33;4.67;;;;;;;;5057040;28;45443;-80
2022/11/07 03:33:27;;;;;;;;;3.33;3.00;;;;;;;;5056174;28;45537;-82
2022/11/07 03:35:53;;;;;;;;;3.33;3.33;;;;;;;;5068526;28;45456;-81
2022/11/07 03:38:19;;;;;;;;;4.67;3.33;;;;;;;;5076862;27;45067;-83
2022/11/07 03:40:45;;;;;;;;;14.00;3.67;;;;;;;;5048240;28;45408;-83
2022/11/07 03:43:10;;;;;;;;;6.33;4.00;;;;;;;;5039268;28;46014;-82
2022/11/07 03:45:35;;;;;;;;;5.33;2.00;;;;;;;;5056053;28;45849;-80
2022/11/07 03:48:01;;;;;;;;;4.00;1.67;;;;;;;;5040998;28;46545;-80
2022/11/07 03:50:26;;;;;;;;;6.67;2.00;;;;;;;;5061082;28;45646;-79
2022/11/07 03:52:52;;;;;;;;;7.67;4.00;;;;;;;;5059093;28;45724;-80
2022/11/07 03:55:17;;;;;;;;;2.67;1.00;;;;;;;;5056696;28;45864;-79
2022/11/07 03:57:43;;;;;;;;;3.00;2.00;;;;;;;;5032948;28;45832;-81
2022/11/07 04:00:09;;;;;;;;;3.67;3.00;;;;;;;;5050409;28;45441;-80
2022/11/07 04:02:35;;;;;;;;;3.00;1.00;;;;;;;;5043408;28;45328;-81
2022/11/07 04:05:01;;;;;;;;;4.33;3.00;;;;;;;;5028229;28;47041;-81
2022/11/07 04:07:26;;;;;;;;;3.67;2.00;;;;;;;;5045876;28;46131;-81
2022/11/07 04:09:51;;;;;;;;;4.00;2.33;;;;;;;;5053255;28;44792;-82
2022/11/07 04:17:46;;;;;;;;;8.67;3.00;;;;;;;;5018323;28;46080;-81
2022/11/07 04:20:12;;;;;;;;;7.00;3.00;;;;;;;;5046599;28;45607;-81
2022/11/07 04:22:40;;;;;;;;;5.67;1.67;;;;;;;;5032454;28;45431;-81
2022/11/07 04:25:06;;;;;;;;;4.00;2.33;;;;;;;;5055895;28;45833;-82
2022/11/07 04:27:41;;;;;;;;;4.00;3.00;;;;;;;;5046700;28;46619;-82
2022/11/07 04:30:17;;;;;;;;;4.00;2.67;;;;;;;;5054131;28;46242;-83
2022/11/07 04:32:50;;;;;;;;;5.00;1.00;;;;;;;;5041373;28;45901;-81
2022/11/07 04:35:15;;;;;;;;;2.33;2.33;;;;;;;;5027503;28;46093;-82
2022/11/07 04:37:41;;;;;;;;;4.33;1.00;;;;;;;;5028264;28;47777;-83
2022/11/07 04:40:07;;;;;;;;;2.00;2.00;;;;;;;;5047252;28;45650;-81
2022/11/07 04:42:33;;;;;;;;;7.67;3.67;;;;;;;;5052180;28;45461;-83
2022/11/07 04:44:58;;;;;;;;;1.00;1.00;;;;;;;;5027957;28;46052;-82
2022/11/07 04:47:23;;;;;;;;;4.00;1.00;;;;;;;;5053843;28;45935;-81
2022/11/07 04:49:49;;;;;;;;;6.00;2.67;;;;;;;;5047980;28;45391;-81
2022/11/07 04:52:14;;;;;;;;;6.33;1.00;;;;;;;;5060897;28;45745;-82
2022/11/07 04:54:40;;;;;;;;;2.00;2.00;;;;;;;;5050090;28;45434;-84
2022/11/07 04:57:05;;;;;;;;;3.67;2.00;;;;;;;;5029013;28;45455;-83
2022/11/07 04:59:32;;;;;;;;;3.00;2.67;;;;;;;;5047696;28;45770;-83
2022/11/07 05:01:57;;;;;;;;;3.00;0.67;;;;;;;;5046702;28;45540;-81
2022/11/07 05:04:22;;;;;;;;;5.67;3.00;;;;;;;;5038424;28;46365;-82
2022/11/07 05:06:48;;;;;;;;;7.67;3.00;;;;;;;;5037350;28;46027;-80
2022/11/07 05:09:15;;;;;;;;;2.67;2.00;;;;;;;;5051804;28;45765;-83
2022/11/07 05:11:40;;;;;;;;;4.00;3.00;;;;;;;;5036370;28;45488;-82
2022/11/07 05:14:07;;;;;;;;;1.33;1.33;;;;;;;;5053614;28;45677;-82
2022/11/07 05:16:32;;;;;;;;;1.67;1.67;;;;;;;;5027046;28;47265;-81
2022/11/07 05:19:01;;;;;;;;;7.00;0.67;;;;;;;;5040215;28;45508;-82
2022/11/07 05:21:26;;;;;;;;;4.33;1.33;;;;;;;;5031402;28;45568;-83
2022/11/07 05:23:53;;;;;;;;;4.00;2.00;;;;;;;;5051173;28;45728;-83
2022/11/07 05:26:21;;;;;;;;;3.67;1.00;;;;;;;;5043115;28;45484;-83
2022/11/07 05:28:47;;;;;;;;;3.00;2.00;;;;;;;;5036737;28;45829;-82
2022/11/07 05:31:18;;;;;;;;;1.00;1.00;;;;;;;;5032925;28;45930;-83
2022/11/07 05:33:46;;;;;;;;;6.67;2.00;;;;;;;;5032443;28;45549;-84
2022/11/07 05:36:13;;;;;;;;;4.00;2.00;;;;;;;;5045468;28;46214;-83
2022/11/07 05:38:39;;;;;;;;;5.00;2.00;;;;;;;;5035305;28;45490;-85
2022/11/07 05:41:06;;;;;;;;;2.67;1.67;;;;;;;;5038518;28;45504;-83
2022/11/07 05:43:46;;;;;;;;;3.00;2.00;;;;;;;;5041429;28;46238;-84
2022/11/07 05:46:13;;;;;;;;;4.00;3.00;;;;;;;;5057348;28;45836;-85
2022/11/07 05:48:41;;;;;;;;;1.33;1.33;;;;;;;;5062009;28;45525;-82
2022/11/07 05:51:10;;;;;;;;;1.33;1.00;;;;;;;;5067527;28;44882;-85
2022/11/07 05:53:36;;;;;;;;;6.00;2.00;;;;;;;;5058780;22;45590;-65
2022/11/07 05:56:01;;;;;;;;;3.00;2.00;;;;;;;;5032947;28;45739;-66
2022/11/07 05:58:26;;;;;;;;;2.00;2.00;;;;;;;;5018219;28;45722;-66
2022/11/07 06:00:51;;;;;;;;;1.67;0.67;;;;;;;;5025530;28;45617;-66
2022/11/07 06:03:18;;;;;;;;;3.00;3.00;;;;;;;;5024896;28;45522;-65
2022/11/07 06:05:44;;;;;;;;;2.33;1.33;;;;;;;;5012962;28;45818;-66
2022/11/07 06:08:11;;;;;;;;;1.67;1.33;;;;;;;;5040664;28;45330;-66
2022/11/07 06:10:37;;;;;;;;;6.33;2.00;;;;;;;;5024767;28;45810;-66
2022/11/07 06:13:04;;;;;;;;;2.67;1.00;;;;;;;;5022612;28;45468;-66
2022/11/07 06:15:30;;;;;;;;;1.33;0.67;;;;;;;;5020517;28;45721;-65
2022/11/07 06:17:57;;;;;;;;;1.67;0.67;;;;;;;;5023778;28;45386;-66
2022/11/07 06:20:22;;;;;;;;;4.33;1.67;;;;;;;;5007750;28;45858;-66
2022/11/07 06:22:47;;;;;;;;;4.00;2.00;;;;;;;;5032048;28;45383;-64
2022/11/07 06:25:13;;;;;;;;;3.00;1.67;;;;;;;;5026128;28;45520;-65
2022/11/07 06:27:38;;;;;;;;;3.67;1.00;;;;;;;;5014806;28;45704;-66
2022/11/07 06:30:03;;;;;;;;;5.67;3.00;;;;;;;;5033993;28;46446;-64
2022/11/07 06:32:29;;;;;;;;;5.33;2.00;;;;;;;;5033347;28;45577;-65
2022/11/07 06:34:54;;;;;;;;;6.33;1.67;;;;;;;;5012265;28;45569;-66
2022/11/07 06:37:20;;;;;;;;;2.00;1.00;;;;;;;;5033374;28;45377;-64
2022/11/07 06:39:45;;;;;;;;;3.00;2.00;;;;;;;;5017985;28;45331;-63
2022/11/07 06:42:10;;;;;;;;;10.00;3.33;;;;;;;;5023263;28;45237;-66
2022/11/07 06:44:35;;;;;;;;;2.33;2.00;;;;;;;;5016365;28;45610;-65
2022/11/07 06:47:01;;;;;;;;;5.00;1.33;;;;;;;;5017610;28;45573;-64
2022/11/07 06:49:26;;;;;;;;;1.00;0.67;;;;;;;;5016148;28;45860;-66
2022/11/07 06:51:51;;;;;;;;;1.00;1.00;;;;;;;;5019063;28;45493;-66
2022/11/07 06:54:17;;;;;;;;;1.67;1.00;;;;;;;;5019015;28;45966;-64
2022/11/07 06:56:42;;;;;;;;;1.67;0.67;;;;;;;;5018846;28;45950;-65
2022/11/07 06:59:08;;;;;;;;;3.33;2.00;;;;;;;;5022691;28;45785;-66
2022/11/07 07:01:33;;;;;;;;;4.33;2.67;;;;;;;;5022329;28;46384;-65
2022/11/07 07:03:59;;;;;;;;;6.00;2.00;;;;;;;;5006511;28;47056;-65
2022/11/07 07:06:24;;;;;;;;;5.33;2.00;;;;;;;;5011129;28;46024;-64
2022/11/07 07:08:50;;;;;;;;;4.00;2.00;;;;;;;;5034255;28;45505;-64
2022/11/07 07:11:15;;;;;;;;;5.67;4.00;;;;;;;;5014663;28;46255;-65
2022/11/07 07:13:40;;;;;;;;;4.00;3.00;;;;;;;;5024310;28;45901;-65
2022/11/07 07:16:06;;;;;;;;;2.33;1.67;;;;;;;;5011815;28;45721;-66
2022/11/07 07:18:32;;;;;;;;;2.00;2.00;;;;;;;;5026252;28;45619;-66
2022/11/07 07:21:04;;;;;;;;;2.00;1.33;;;;;;;;5022027;28;46091;-66
2022/11/07 07:23:29;;;;;;;;;3.00;1.00;;;;;;;;5021748;28;45826;-65
2022/11/07 07:25:55;;;;;;;;;3.00;1.67;;;;;;;;5026832;28;45815;-65
2022/11/07 07:28:20;;;;;;;;;2.00;2.00;;;;;;;;5023953;28;45784;-66
2022/11/07 07:30:45;;;;;;;;;3.33;2.33;;;;;;;;5024325;28;45721;-64
2022/11/07 07:33:11;;;;;;;;;2.33;1.00;;;;;;;;5019068;28;46186;-65
2022/11/07 07:35:36;;;;;;;;;2.00;2.00;;;;;;;;5004886;28;45430;-66
2022/11/07 07:38:01;;;;;;;;;8.67;3.33;;;;;;;;5021450;28;45955;-65
2022/11/07 07:40:27;;;;;;;;;2.00;2.00;;;;;;;;5023905;28;45410;-64
2022/11/07 07:42:52;;;;;;;;;2.67;0.33;;;;;;;;5009174;28;47007;-65
2022/11/07 07:45:17;;;;;;;;;1.67;1.00;;;;;;;;5010701;28;45602;-65
2022/11/07 07:47:43;;;;;;;;;2.67;1.33;;;;;;;;5042596;28;45497;-68
2022/11/07 07:50:09;;;;;;;;;3.00;1.67;;;;;;;;5029585;28;45827;-64
2022/11/07 07:52:34;;;;;;;;;1.00;1.00;;;;;;;;5012296;28;47317;-64
2022/11/07 07:54:59;;;;;;;;;1.33;1.33;;;;;;;;5027731;28;45360;-63
2022/11/07 07:57:25;;;;;;;;;3.00;3.00;;;;;;;;5022766;28;45379;-65
2022/11/07 07:59:50;;;;;;;;;1.00;1.00;;;;;;;;5028625;28;45818;-66
2022/11/07 08:02:15;;;;;;;;;2.67;1.00;;;;;;;;5013465;28;46212;-67
2022/11/07 08:04:41;;;;;;;;;4.00;1.33;;;;;;;;5017933;28;45706;-66
2022/11/07 08:07:06;;;;;;;;;5.33;2.00;;;;;;;;5022451;28;47310;-66
2022/11/07 08:09:35;;;;;;;;;6.33;2.67;;;;;;;;5023290;28;45486;-65
2022/11/07 08:12:02;;;;;;;;;1.67;1.67;;;;;;;;5026447;28;46346;-63
2022/11/07 08:14:27;;;;;;;;;2.50;0.75;;;;;;;;5021843;28;45753;-64
2022/11/07 08:16:52;;;;;;;;;3.33;2.00;;;;;;;;5016349;28;45438;-65
2022/11/07 08:19:17;;;;;;;;;2.67;1.33;;;;;;;;5030344;28;45778;-64
2022/11/07 08:21:43;;;;;;;;;4.00;2.67;;;;;;;;5011174;28;48125;-64
2022/11/07 08:24:08;;;;;;;;;3.00;3.00;;;;;;;;5010505;28;45560;-64
2022/11/07 08:26:35;;;;;;;;;5.75;4.00;;;;;;;;5012138;28;45938;-64
2022/11/07 08:29:00;;;;;;;;;4.00;4.00;;;;;;;;5015479;28;46246;-64
2022/11/07 08:31:25;;;;;;;;;3.00;2.00;;;;;;;;5032437;28;45760;-64
2022/11/07 08:33:50;;;;;;;;;3.75;2.75;;;;;;;;5043128;28;45481;-65
2022/11/07 08:36:16;;;;;;;;;4.33;1.67;;;;;;;;5014715;28;45630;-64
2022/11/07 08:38:41;;;;;;;;;2.50;1.00;;;;;;;;5025599;28;46361;-66
2022/11/07 08:41:06;;;;;;;;;2.75;1.75;;;;;;;;5018590;28;45556;-64
2022/11/07 08:43:31;;;;;;;;;3.50;2.50;;;;;;;;5020631;28;45415;-64
2022/11/07 08:45:57;;;;;;;;;3.75;2.00;;;;;;;;5018428;28;45658;-65
2022/11/07 08:48:22;;;;;;;;;4.50;2.00;;;;;;;;5020264;28;45650;-67
2022/11/07 08:50:51;;;;;;;;;3.25;1.25;;;;;;;;5034737;28;46119;-69
2022/11/07 08:53:16;;;;;;;;;1.50;1.25;;;;;;;;5033856;28;45559;-69
2022/11/07 08:55:42;;;;;;;;;5.50;1.75;;;;;;;;5024674;28;45461;-68
2022/11/07 08:58:07;;;;;;;;;3.00;1.50;;;;;;;;5021039;28;45345;-66
2022/11/07 09:00:33;;;;;;;;;1.50;1.00;;;;;;;;5020599;28;46136;-64
2022/11/07 09:03:03;;;;;;;;;4.00;2.75;;;;;;;;5023517;28;45418;-65
2022/11/07 09:05:28;;;;;;;;;1.75;1.75;;;;;;;;5016507;28;45414;-66
2022/11/07 09:07:53;;;;;;;;;6.25;3.50;;;;;;;;5018677;28;45405;-65
2022/11/07 09:10:19;;;;;;;;;1.00;1.00;;;;;;;;5025173;28;45338;-67
2022/11/07 09:12:45;;;;;;;;;2.33;2.33;;;;;;;;5011893;28;45409;-66
2022/11/07 09:15:10;;;;;;;;;3.75;1.00;;;;;;;;5032745;28;45749;-66
2022/11/07 09:17:35;;;;;;;;;1.25;1.25;;;;;;;;5016482;28;46012;-66
2022/11/07 09:20:01;;;;;;;;;2.50;2.00;;;;;;;;5021508;28;45999;-67
2022/11/07 09:22:26;;;;;;;;;2.50;1.75;;;;;;;;5018640;28;45519;-66
2022/11/07 09:24:51;;;;;;;;;2.75;1.75;;;;;;;;5033804;28;45407;-69
2022/11/07 09:27:16;;;;;;;;;1.50;1.25;;;;;;;;5027275;28;45606;-68
2022/11/07 09:29:42;;;;;;;;;2.00;1.00;;;;;;;;5017708;28;48107;-66
2022/11/07 09:32:07;;;;;;;;;1.00;1.00;;;;;;;;5016981;28;46033;-66
2022/11/07 09:34:32;;;;;;;;;3.00;0.25;;;;;;;;5014211;28;45715;-65
2022/11/07 09:36:57;;;;;;;;;3.75;0.50;;;;;;;;5015969;28;45835;-66
2022/11/07 09:39:23;;;;;;;;;0.00;0.00;;;;;;;;5025056;28;45991;-67
2022/11/07 09:41:48;;;;;;;;;3.00;1.75;;;;;;;;5017623;28;45666;-65
2022/11/07 09:44:32;;;;;;;;;4.00;1.00;;;;;;;;5027638;28;45753;-66
2022/11/07 09:47:05;;;;;;;;;1.00;1.00;;;;;;;;5030693;28;45432;-65
2022/11/07 09:49:38;;;;;;;;;1.50;1.50;;;;;;;;5023735;28;46367;-64
2022/11/07 09:52:16;;;;;;;;;2.00;2.00;;;;;;;;5032189;28;45809;-69
2022/11/07 09:54:44;;;;;;;;;2.50;1.00;;;;;;;;5034766;28;45667;-65
2022/11/07 09:57:13;;;;;;;;;4.25;2.50;;;;;;;;5029547;28;46083;-66
2022/11/07 09:59:42;;;;;;;;;6.25;2.00;;;;;;;;5032114;28;45927;-65
2022/11/07 10:02:13;;;;;;;;;1.00;1.00;;;;;;;;5034279;28;45497;-67
2022/11/07 10:04:39;;;;;;;;;3.00;1.00;;;;;;;;5010615;28;45549;-65
2022/11/07 10:07:10;;;;;;;;;2.25;1.00;;;;;;;;5026111;28;45448;-68
2022/11/07 10:09:49;;;;;;;;;1.50;1.50;;;;;;;;5033448;28;45668;-65
2022/11/07 10:12:14;;;;;;;;;3.50;2.00;;;;;;;;5042617;28;45660;-65
2022/11/07 10:14:50;;;;;;;;;2.75;2.00;;;;;;;;5019742;28;45746;-67
2022/11/07 10:17:21;;;;;;;;;3.50;1.00;;;;;;;;5025244;28;45753;-65
2022/11/07 10:19:58;;;;;;;;;5.50;1.00;;;;;;;;5028870;28;45662;-69
2022/11/07 10:22:49;;;;;;;;;2.75;2.25;;;;;;;;5020564;28;45387;-68
2022/11/07 10:25:29;;;;;;;;;2.75;1.00;;;;;;;;5008552;28;45686;-65
2022/11/07 10:28:14;;;;;;;;;1.25;1.00;;;;;;;;5000209;28;46301;-66
2022/11/07 10:30:41;;;;;;;;;2.00;1.00;;;;;;;;5017841;28;45610;-66
2022/11/07 10:33:19;;;;;;;;;3.00;2.00;;;;;;;;5034622;28;45478;-67
2022/11/07 10:35:48;;;;;;;;;3.00;3.00;;;;;;;;5028657;28;45371;-66
2022/11/07 10:38:18;;;;;;;;;3.00;2.00;;;;;;;;5031153;28;46049;-67
2022/11/07 10:40:44;;;;;;;;;1.75;1.75;;;;;;;;5022478;28;45485;-68
2022/11/07 10:43:32;;;;;;;;;4.75;2.75;;;;;;;;5025362;28;45772;-66
2022/11/07 10:45:59;;;;;;;;;4.00;2.00;;;;;;;;5028325;28;45518;-65
2022/11/07 10:48:25;;;;;;;;;4.50;2.00;;;;;;;;5032792;28;45304;-67
2022/11/07 10:50:52;;;;;;;;;3.25;2.00;;;;;;;;5031805;28;46616;-67
2022/11/07 10:53:18;;;;;;;;;2.75;1.50;;;;;;;;5034132;28;45415;-70
2022/11/07 10:55:44;;;;;;;;;1.25;1.00;;;;;;;;5051126;28;45794;-68
2022/11/07 10:58:22;;;;;;;;;1.00;1.00;;;;;;;;5034340;28;45792;-66
2022/11/07 11:00:57;;;;;;;;;3.50;1.75;;;;;;;;5030743;28;45820;-69
2022/11/07 11:03:30;;;;;;;;;2.50;2.00;;;;;;;;5020216;28;45397;-65
2022/11/07 11:06:07;;;;;;;;;4.50;2.00;;;;;;;;5024199;28;45456;-66
2022/11/07 11:08:35;;;;;;;;;1.50;1.50;;;;;;;;5007850;28;45714;-67
2022/11/07 11:11:00;;;;;;;;;3.50;2.25;;;;;;;;5036184;28;46728;-68
2022/11/07 11:13:27;;;;;;;;;2.00;2.00;;;;;;;;5033780;28;45671;-65
2022/11/07 11:15:54;;;;;;;;;4.50;1.50;;;;;;;;5029234;28;45366;-68
2022/11/07 11:18:19;;;;;;;;;0.25;0.25;;;;;;;;5012353;28;46485;-66
2022/11/07 11:21:00;;;;;;;;;1.75;1.50;;;;;;;;5014725;28;47252;-66
2022/11/07 11:23:35;;;;;;;;;4.50;2.00;;;;;;;;5027162;28;45807;-67
2022/11/07 11:26:12;;;;;;;;;3.75;3.00;;;;;;;;5027167;28;45654;-65
2022/11/07 11:29:04;;;;;;;;;6.50;2.25;;;;;;;;5019010;28;46111;-65
2022/11/07 11:31:34;;;;;;;;;5.25;3.25;;;;;;;;5005176;28;45788;-67
2022/11/07 11:34:10;;;;;;;;;5.75;2.75;;;;;;;;5026502;28;45286;-68
2022/11/07 11:36:38;;;;;;;;;14.33;7.67;;;;;;;;5006187;28;45433;-68
2022/11/07 11:39:13;;;;;;;;;9.50;5.50;;;;;;;;5024682;28;45867;-68
2022/11/07 11:41:49;;;;;;;;;3.50;2.50;;;;;;;;5025632;28;47181;-66
2022/11/07 11:44:19;;;;;;;;;7.33;7.33;;;;;;;;5024513;28;45422;-67
2022/11/07 11:46:49;;;;;;;;;4.00;3.00;;;;;;;;5006001;28;45474;-67
2022/11/07 11:49:18;;;;;;;;;2.50;2.50;;;;;;;;5008230;28;45739;-70
2022/11/07 11:51:59;;;;;;;;;1.00;1.00;;;;;;;;5018993;28;46904;-66
2022/11/07 11:54:24;;;;;;;;;4.00;1.25;;;;;;;;5027268;28;45859;-66
2022/11/07 11:57:02;;;;;;;;;4.25;3.00;;;;;;;;5017882;28;46366;-67
2022/11/07 11:59:42;;;;;;;;;9.33;7.00;;;;;;;;5019441;28;45472;-66
2022/11/07 12:02:16;;;;;;;;;4.75;2.25;;;;;;;;5018417;28;45529;-66
2022/11/07 12:05:00;;;;;;;;;13.00;8.67;;;;;;;;5016374;28;45717;-66
2022/11/07 12:07:34;;;;;;;;;4.00;4.00;;;;;;;;5026191;28;45715;-65
2022/11/07 12:10:02;;;;;;;;;3.25;2.50;;;;;;;;5026029;28;45754;-65
2022/11/07 12:12:46;;;;;;;;;1.50;0.25;;;;;;;;5017956;28;45562;-66
2022/11/07 12:15:22;;;;;;;;;4.25;3.00;;;;;;;;5017371;28;45675;-64
2022/11/07 12:18:00;;;;;;;;;5.25;2.00;;;;;;;;5022327;28;45447;-66
2022/11/07 12:20:57;;;;;;;;;5.67;5.33;;;;;;;;5017550;28;45750;-65
2022/11/07 12:23:28;;;;;;;;;2.75;2.25;;;;;;;;4983160;28;46214;-67
2022/11/07 12:26:00;;;;;;;;;2.67;2.00;;;;;;;;5024170;28;45638;-63
2022/11/07 12:28:31;;;;;;;;;2.00;2.00;;;;;;;;5024908;28;45451;-65
2022/11/07 12:31:19;;;;;;;;;4.25;2.75;;;;;;;;5016896;28;45561;-65
2022/11/07 12:33:52;;;;;;;;;6.50;3.00;;;;;;;;5013647;28;45507;-66
2022/11/07 12:36:17;;;;;;;;;1.00;1.00;;;;;;;;5016197;28;45805;-66
2022/11/07 12:39:05;;;;;;;;;2.75;2.75;;;;;;;;5015944;28;45732;-68
2022/11/07 12:41:42;;;;;;;;;0.50;0.50;;;;;;;;5002004;28;46036;-67
2022/11/07 12:44:13;;;;;;;;;4.50;3.00;;;;;;;;5024729;28;45773;-68
2022/11/07 12:46:42;;;;;;;;;3.25;1.50;;;;;;;;5020045;28;45489;-69
2022/11/07 12:49:25;;;;;;;;;6.00;3.00;;;;;;;;5030099;28;45431;-71
2022/11/07 12:52:09;;;;;;;;;4.00;4.00;;;;;;;;5028854;28;45379;-68
2022/11/07 12:54:41;;;;;;;;;2.75;2.75;;;;;;;;4999732;28;45898;-69
2022/11/07 12:57:32;;;;;;;;;4.75;3.00;;;;;;;;5024230;28;45453;-68
2022/11/07 13:00:01;;;;;;;;;4.00;2.25;;;;;;;;5033190;28;46019;-71
2022/11/07 13:02:35;;;;;;;;;2.25;0.50;;;;;;;;5022668;28;45815;-69
2022/11/07 13:05:17;;;;;;;;;5.50;3.00;;;;;;;;5021470;28;47097;-69
2022/11/07 13:07:55;;;;;;;;;6.00;2.00;;;;;;;;5030411;28;45698;-69
2022/11/07 13:10:47;;;;;;;;;1.00;1.00;;;;;;;;5028946;28;45941;-69
2022/11/07 13:13:35;;;;;;;;;2.25;2.00;;;;;;;;5015573;28;45772;-68
2022/11/07 13:16:19;;;;;;;;;3.25;2.00;;;;;;;;5023337;28;45991;-72
2022/11/07 13:18:45;;;;;;;;;3.00;2.00;;;;;;;;5031789;28;45252;-68
2022/11/07 13:21:10;;;;;;;;;4.75;2.50;;;;;;;;5014244;28;45845;-69
2022/11/07 13:23:35;;;;;;;;;3.00;3.00;;;;;;;;5013545;28;45714;-69
2022/11/07 13:26:01;;;;;;;;;1.50;1.00;;;;;;;;5017377;28;47026;-70
2022/11/07 13:28:40;;;;;;;;;3.75;2.75;;;;;;;;4997622;28;45924;-70
2022/11/07 13:31:26;;;;;;;;;2.50;1.75;;;;;;;;5013398;28;45712;-68
2022/11/07 13:33:51;;;;;;;;;3.00;2.00;;;;;;;;5014180;28;45692;-68
2022/11/07 13:36:24;;;;;;;;;8.25;4.00;;;;;;;;5016725;28;46028;-69
2022/11/07 13:38:51;;;;;;;;;3.00;2.50;;;;;;;;5013216;28;45370;-68
2022/11/07 13:41:17;;;;;;;;;2.75;0.00;;;;;;;;5012308;28;45711;-68
2022/11/07 13:43:43;;;;;;;;;2.75;2.00;;;;;;;;5017615;28;45684;-69
2022/11/07 13:46:26;;;;;;;;;4.00;1.75;;;;;;;;5011466;28;46105;-69
2022/11/07 13:48:51;;;;;;;;;4.75;3.00;;;;;;;;5017163;28;46360;-70
2022/11/07 13:51:17;;;;;;;;;1.75;0.75;;;;;;;;5029964;28;45346;-69
2022/11/07 13:54:01;;;;;;;;;1.00;1.00;;;;;;;;5019961;28;45391;-70
2022/11/07 13:56:32;;;;;;;;;1.00;1.00;;;;;;;;5023436;28;46096;-71
2022/11/07 13:59:00;;;;;;;;;1.50;1.00;;;;;;;;5017448;28;45886;-69
2022/11/07 14:01:25;;;;;;;;;1.00;1.00;;;;;;;;5029679;28;45763;-68
2022/11/07 14:03:50;;;;;;;;;3.00;1.00;;;;;;;;5025143;28;45370;-70
2022/11/07 14:06:16;;;;;;;;;2.50;1.50;;;;;;;;5017526;28;46413;-69
2022/11/07 14:08:45;;;;;;;;;1.00;1.00;;;;;;;;5021981;28;45658;-70
2022/11/07 14:11:21;;;;;;;;;5.00;2.00;;;;;;;;5031863;28;45753;-68
2022/11/07 14:13:49;;;;;;;;;0.75;0.25;;;;;;;;5022771;28;45758;-69
2022/11/07 14:16:22;;;;;;;;;1.00;0.00;;;;;;;;5019852;28;47219;-69
2022/11/07 14:18:58;;;;;;;;;1.50;0.50;;;;;;;;5023696;28;45434;-68
2022/11/07 14:21:31;;;;;;;;;2.50;2.50;;;;;;;;5022521;28;45476;-69
2022/11/07 14:23:56;;;;;;;;;4.00;3.00;;;;;;;;5004286;28;45731;-69
2022/11/07 14:26:24;;;;;;;;;0.00;0.00;;;;;;;;5028642;28;45604;-69
2022/11/07 14:28:50;;;;;;;;;1.00;1.00;;;;;;;;5032974;28;45491;-70
2022/11/07 14:31:20;;;;;;;;;2.75;1.00;;;;;;;;5027124;28;45815;-69
2022/11/07 14:33:49;;;;;;;;;1.50;1.50;;;;;;;;5020273;28;45452;-69
2022/11/07 14:36:15;;;;;;;;;3.75;1.75;;;;;;;;5004025;28;47561;-68
2022/11/07 14:38:45;;;;;;;;;3.00;2.00;;;;;;;;5026860;28;45603;-69
2022/11/07 14:41:11;;;;;;;;;1.00;1.00;;;;;;;;5025162;28;45426;-68
2022/11/07 14:43:36;;;;;;;;;2.50;1.00;;;;;;;;5041508;28;46139;-68
2022/11/07 14:46:03;;;;;;;;;2.50;0.25;;;;;;;;5039883;28;45700;-69
2022/11/07 14:48:29;;;;;;;;;4.00;2.00;;;;;;;;5019982;28;45638;-67
2022/11/07 14:50:55;;;;;;;;;2.00;2.00;;;;;;;;5015711;28;45798;-68
2022/11/07 14:53:20;;;;;;;;;2.25;2.00;;;;;;;;5032783;28;45778;-66
2022/11/07 14:55:48;;;;;;;;;0.00;0.00;;;;;;;;5028629;28;45857;-72
2022/11/07 14:58:15;;;;;;;;;3.00;2.00;;;;;;;;5020565;28;45361;-71
2022/11/07 15:00:49;;;;;;;;;1.00;0.50;;;;;;;;5002562;28;45834;-71
2022/11/07 15:03:20;;;;;;;;;2.25;2.00;;;;;;;;5022961;28;47528;-70